createdAt,value
2022-07-28T00:02:40.984Z,14.80
2022-07-28T00:06:45.893Z,14.80
2022-07-28T00:10:49.230Z,14.80
2022-07-28T00:14:52.554Z,14.70
2022-07-28T00:18:55.883Z,14.60
2022-07-28T00:23:00.725Z,14.50
2022-07-28T00:27:04.080Z,14.50
2022-07-28T00:31:08.564Z,14.40
2022-07-28T00:35:15.067Z,14.30
2022-07-28T00:39:20.433Z,14.30
2022-07-28T00:43:23.840Z,14.20
2022-07-28T00:47:27.180Z,14.20
2022-07-28T00:51:37.470Z,14.20
2022-07-28T00:56:03.426Z,14.20
2022-07-28T01:00:06.866Z,14.10
2022-07-28T01:04:10.663Z,14.00
2022-07-28T01:08:21.757Z,14.00
2022-07-28T01:12:35.982Z,13.90
2022-07-28T01:16:45.230Z,13.90
2022-07-28T01:20:51.594Z,13.80
2022-07-28T01:25:08.440Z,13.80
2022-07-28T01:29:47.736Z,13.70
2022-07-28T01:33:57.770Z,13.70
2022-07-28T01:38:04.947Z,13.70
2022-07-28T01:42:10.137Z,13.60
2022-07-28T01:46:15.832Z,13.70
2022-07-28T01:50:24.028Z,13.70
2022-07-28T01:54:28.971Z,13.70
2022-07-28T01:58:33.668Z,13.60
2022-07-28T02:02:40.832Z,13.70
2022-07-28T02:06:47.422Z,13.60
2022-07-28T02:11:05.509Z,13.60
2022-07-28T02:15:15.845Z,13.70
2022-07-28T02:19:21.120Z,13.90
2022-07-28T02:23:33.866Z,14.00
2022-07-28T02:27:40.575Z,14.10
2022-07-28T02:31:52.348Z,14.20
2022-07-28T02:36:00.592Z,14.20
2022-07-28T02:40:08.606Z,14.20
2022-07-28T02:44:16.740Z,14.20
2022-07-28T02:48:24.886Z,14.20
2022-07-28T02:52:30.984Z,14.20
2022-07-28T02:56:36.772Z,14.10
2022-07-28T03:00:41.965Z,14.20
2022-07-28T03:05:02.090Z,14.20
2022-07-28T03:09:05.810Z,14.20
2022-07-28T03:13:13.535Z,14.20
2022-07-28T03:17:17.333Z,14.10
2022-07-28T03:21:20.772Z,14.10
2022-07-28T03:25:29.823Z,14.00
2022-07-28T03:29:36.034Z,13.90
2022-07-28T03:33:40.197Z,13.80
2022-07-28T03:37:58.767Z,13.80
2022-07-28T03:42:04.452Z,13.80
2022-07-28T03:46:13.322Z,13.80
2022-07-28T03:50:17.087Z,13.80
2022-07-28T03:54:20.445Z,13.90
2022-07-28T03:58:28.729Z,14.00
2022-07-28T04:02:34.799Z,14.10
2022-07-28T04:06:38.174Z,14.20
2022-07-28T04:10:42.114Z,14.30
2022-07-28T04:14:45.444Z,14.40
2022-07-28T04:18:50.301Z,14.50
2022-07-28T04:22:54.342Z,14.70
2022-07-28T04:26:57.840Z,14.70
2022-07-28T04:31:01.276Z,14.80
2022-07-28T04:35:06.774Z,14.90
2022-07-28T04:39:11.240Z,14.90
2022-07-28T04:43:15.078Z,15.10
2022-07-28T04:47:18.783Z,15.20
2022-07-28T04:51:23.732Z,15.30
2022-07-28T04:55:27.548Z,15.50
2022-07-28T04:59:31.363Z,15.60
2022-07-28T05:03:36.662Z,15.70
2022-07-28T05:07:42.218Z,15.70
2022-07-28T05:11:45.983Z,15.90
2022-07-28T05:15:49.619Z,16.00
2022-07-28T05:19:53.048Z,16.00
2022-07-28T05:23:57.822Z,16.30
2022-07-28T05:28:01.160Z,16.50
2022-07-28T05:32:16.453Z,16.60
2022-07-28T05:36:21.130Z,16.60
2022-07-28T05:40:27.347Z,16.80
2022-07-28T05:44:35.782Z,16.80
2022-07-28T05:48:41.114Z,16.80
2022-07-28T05:52:46.078Z,16.90
2022-07-28T05:56:51.281Z,16.90
2022-07-28T06:00:55.186Z,17.10
2022-07-28T06:04:58.962Z,17.30
2022-07-28T06:09:02.282Z,17.20
2022-07-28T06:13:06.982Z,17.30
2022-07-28T06:17:10.285Z,17.30
2022-07-28T06:21:14.318Z,17.40
2022-07-28T06:25:19.854Z,17.50
2022-07-28T06:29:26.821Z,17.70
2022-07-28T06:33:30.138Z,18.10
2022-07-28T06:37:33.556Z,18.50
2022-07-28T06:41:41.563Z,18.70
2022-07-28T06:45:46.544Z,18.80
2022-07-28T06:49:49.932Z,19.30
2022-07-28T06:53:53.561Z,19.60
2022-07-28T06:57:59.203Z,20.00
2022-07-28T07:02:03.961Z,20.20
2022-07-28T07:06:07.525Z,20.60
2022-07-28T07:10:11.387Z,21.00
2022-07-28T07:14:15.044Z,21.00
2022-07-28T07:18:20.093Z,21.20
2022-07-28T07:22:23.523Z,21.50
2022-07-28T07:26:26.975Z,21.60
2022-07-28T07:30:30.423Z,22.00
2022-07-28T07:34:35.194Z,22.40
2022-07-28T07:38:38.806Z,22.40
2022-07-28T07:42:43.239Z,22.20
2022-07-28T07:46:46.774Z,22.80
2022-07-28T07:50:54.002Z,22.90
2022-07-28T07:54:57.769Z,23.40
2022-07-28T07:59:01.123Z,23.80
2022-07-28T08:03:04.531Z,23.60
2022-07-28T08:07:17.059Z,23.40
2022-07-28T08:11:20.416Z,23.40
2022-07-28T08:15:23.751Z,23.40
2022-07-28T08:19:27.200Z,23.70
2022-07-28T08:23:34.019Z,23.80
2022-07-28T08:27:37.361Z,23.80
2022-07-28T08:31:40.808Z,24.10
2022-07-28T08:35:45.032Z,24.40
2022-07-28T08:39:49.899Z,24.40
2022-07-28T08:43:57.308Z,24.60
2022-07-28T08:48:09.775Z,25.10
2022-07-28T08:52:14.702Z,26.60
2022-07-28T08:56:21.645Z,27.40
2022-07-28T09:00:25.528Z,28.50
2022-07-28T09:04:29.217Z,29.50
2022-07-28T09:08:32.649Z,29.80
2022-07-28T09:12:37.735Z,30.60
2022-07-28T09:16:41.112Z,30.00
2022-07-28T09:20:45.511Z,29.00
2022-07-28T09:24:49.075Z,29.10
2022-07-28T09:28:55.486Z,29.40
2022-07-28T09:33:41.932Z,29.30
2022-07-28T09:37:39.850Z,29.90
2022-07-28T09:41:50.768Z,31.40
2022-07-28T09:46:05.854Z,32.10
2022-07-28T09:50:09.992Z,32.10
2022-07-28T09:54:16.308Z,33.20
2022-07-28T09:58:20.179Z,34.00
2022-07-28T10:02:28.516Z,33.50
2022-07-28T10:06:37.988Z,32.30
2022-07-28T10:10:41.349Z,33.00
2022-07-28T10:14:46.439Z,33.90
2022-07-28T10:18:51.586Z,34.20
2022-07-28T10:23:00.070Z,33.80
2022-07-28T10:27:06.243Z,33.90
2022-07-28T10:31:12.460Z,34.30
2022-07-28T10:35:19.643Z,34.80
2022-07-28T10:39:29.446Z,35.10
2022-07-28T10:43:36.143Z,35.20
2022-07-28T10:47:48.069Z,35.80
2022-07-28T10:52:05.058Z,34.60
2022-07-28T10:56:22.829Z,36.20
2022-07-28T11:00:34.441Z,36.60
2022-07-28T11:04:55.977Z,36.50
2022-07-28T11:09:21.616Z,35.00
2022-07-28T11:13:33.219Z,36.10
2022-07-28T11:17:36.852Z,36.30
2022-07-28T11:22:22.366Z,37.00
2022-07-28T11:26:45.840Z,36.90
2022-07-28T11:30:55.989Z,37.00
2022-07-28T11:35:12.418Z,37.20
2022-07-28T11:39:25.665Z,36.10
2022-07-28T12:16:01.902Z,38.60
2022-07-28T12:20:13.772Z,38.50
2022-07-28T12:24:19.958Z,39.00
2022-07-28T12:28:25.634Z,39.60
2022-07-28T12:32:36.229Z,36.40
2022-07-28T12:36:40.181Z,37.30
2022-07-28T12:40:46.468Z,37.70
2022-07-28T12:44:51.527Z,35.00
2022-07-28T12:48:57.186Z,33.40
2022-07-28T12:53:05.263Z,35.40
2022-07-28T12:57:08.703Z,36.10
2022-07-28T15:22:01.966Z,36.40
2022-07-28T15:26:07.497Z,38.10
2022-07-28T15:30:12.668Z,38.40
2022-07-28T15:34:16.292Z,38.80
2022-07-28T15:38:19.746Z,38.30
2022-07-28T15:42:24.404Z,36.30
2022-07-28T17:02:43.004Z,26.00
2022-07-28T17:06:47.886Z,26.10
2022-07-28T17:10:51.923Z,26.00
2022-07-28T17:14:55.200Z,26.00
2022-07-28T17:18:59.993Z,25.90
